Socorro, Texas
Current Conditions -  °F | °C
As of 11:40 AM on Monday 20 Oct 2014 (Local Time) from MMCS Reporting Station
Scattered Clouds Scattered Clouds  
Wind Chill: 68°   Ceiling: Unl
Heat Index: 68°   Visibility: 10mi
Dew Point: 54°   Wind: 14mph
Humidity: 60%   Direction: 60°ENE
Pressure: 30.08"   Gusts: NA
Location:  31.66°N, 106.3°W
Report Text: MMCS 201740Z 06012KT 10SM SCT040 20/12 A3008 RMK SLP122 52025 925 8/100
Loading
Personal Weather Stations






























Interactive Weather Map
Tropical Storm Tracking
New forecast layout! Learn more

10-Day Weather Forecast

Advertisements
Track Severe Weather on mobile